Cheboygan, MI (49721)

9:00 PM EST on February 08, 2016 (GMT -0500)
Wildcat North | | Change Station
CLOSE
Current Station
Personal Weather Station
Location: Cheboygan, MI
Elevation: 640 ft
Nearby Weather Stations

Elev 640 ft 45.58 °N, 84.46 °W | Updated 15 seconds ago

Overcast
Overcast
30.6 °F
Feels Like 31 °F
N
3.0
Wind Variable Wind from NNW
Gusts 5.0 mph

Today
High -- | Low -- °F
--% Chance of Precip.
Yesterday
High -- | Low -- °F
Precip. -- in
Pressure 29.63 in
Visibility 7.0 miles
Clouds Overcast 800 ft
Windchill 31 °F
Dew Point 30 °F
Humidity 96%
Rainfall 0.00 in
Snow Depth Not available.
7:50 AM 5:53 PM
New Moon, 0% visible
METAR KSLH 090155Z AUTO 32009KT 7SM OVC008 M01/M02 A2963 RMK AO2 T10111022
Pressure 29.63 in
Visibility 7.0 miles
Clouds Overcast 800 ft
Windchill 31 °F
Dew Point 30 °F
Humidity 96%
Rainfall 0.00 in
Snow Depth Not available.
7:50 AM 5:53 PM
New Moon, 0% visible
METAR KSLH 090155Z AUTO 32009KT 7SM OVC008 M01/M02 A2963 RMK AO2 T10111022

10-Day Weather Forecast

Almanac

Astronomy

Feb. 08, 2016 Rise Set
Actual Time
Civil Twilight
Nautical Twilight
Astronomical Twilight
Moon
Length of Visible Light
Length of Day
Tomorrow will be .
, % of the Moon is Illuminated

Today's Extremes

State Highs State Lows

Community

WunderPhotos

Upload Photos

1,891,527 photos uploaded!

WunderBlog® & News

Nearby

Air Quality

  Air Quality AQ Index Pollutant
Not available.

Snow Depth

Station Depth Elevation

Earthquake Activity

City Distance Mag. Time & Date
Minimum magnitude displayed is 2.5.

Coastal Water Temperatures

Place Temperature

Stations

Nearby Weather Stations

Station Location Temp. Windchill Dew Point Humidity Wind Precip. Elev Updated Type
                   

Watches & Warnings

There are currently no watches in effect.